Time;durP1;ratioP1;P1;durP2;ratioP2;P2;SDS_P1;SDS_P2;PMS_P1;PMS_P2;Temp;Humidity;BMP_temperature;BMP_pressure;BME280_temperature;BME280_humidity;BME280_pressure;Samples;Min_cycle;Max_cycle;Signal;HPM_P1;HPM_P2
2020/12/28 00:00:18;;;;;;;9.48;7.45;;;5.30;94.60;;;;;;4977851;28;20063;-51
2020/12/28 00:02:45;;;;;;;9.20;7.47;;;5.30;94.60;;;;;;4978626;28;20046;-51
2020/12/28 00:05:12;;;;;;;8.95;7.35;;;5.30;94.70;;;;;;4991547;28;20491;-51
2020/12/28 00:07:38;;;;;;;11.52;8.05;;;5.30;94.70;;;;;;4984257;28;20041;-51
2020/12/28 00:10:08;;;;;;;12.20;7.43;;;5.30;94.70;;;;;;4990728;28;20089;-49
2020/12/28 00:12:46;;;;;;;8.98;7.30;;;5.30;94.80;;;;;;4984430;28;20101;-48
2020/12/28 00:15:14;;;;;;;9.48;7.10;;;5.30;94.70;;;;;;4979596;28;20526;-49
2020/12/28 00:17:42;;;;;;;9.32;7.53;;;5.30;94.80;;;;;;4982121;28;20046;-52
2020/12/28 00:20:08;;;;;;;11.50;8.13;;;5.30;94.70;;;;;;4988895;28;20069;-49
2020/12/28 00:22:34;;;;;;;10.98;7.95;;;5.30;94.60;;;;;;4987191;28;20046;-50
2020/12/28 00:25:01;;;;;;;9.57;7.20;;;5.30;94.60;;;;;;4986908;28;20073;-51
2020/12/28 00:27:26;;;;;;;10.65;8.10;;;5.30;94.70;;;;;;4989091;28;20050;-48
2020/12/28 00:29:52;;;;;;;10.95;8.25;;;5.30;94.80;;;;;;4988070;28;20046;-50
2020/12/28 00:32:17;;;;;;;13.25;8.13;;;5.30;94.60;;;;;;4987984;28;20042;-48
2020/12/28 00:34:43;;;;;;;13.35;9.00;;;5.30;94.60;;;;;;4993324;28;20054;-46
2020/12/28 00:37:09;;;;;;;10.35;7.82;;;5.30;94.60;;;;;;4995900;28;20046;-47
2020/12/28 00:39:38;;;;;;;11.73;8.77;;;5.30;94.70;;;;;;4994572;28;20068;-50
2020/12/28 00:42:04;;;;;;;10.68;8.05;;;5.30;94.70;;;;;;4993153;28;20042;-50
2020/12/28 00:44:30;;;;;;;12.13;8.55;;;5.30;94.80;;;;;;4993339;28;20030;-52
2020/12/28 00:46:55;;;;;;;9.70;7.95;;;5.30;94.80;;;;;;4993137;28;20046;-50
2020/12/28 00:49:21;;;;;;;11.82;8.45;;;5.30;94.90;;;;;;4982814;28;20049;-48
2020/12/28 00:51:46;;;;;;;11.27;8.25;;;5.30;94.80;;;;;;4994973;28;20185;-49
2020/12/28 00:54:12;;;;;;;12.73;8.80;;;5.30;94.80;;;;;;4996276;28;20049;-48
2020/12/28 00:56:40;;;;;;;11.13;9.05;;;5.30;94.70;;;;;;5009679;28;20120;-48
2020/12/28 00:59:07;;;;;;;13.45;10.05;;;5.40;94.70;;;;;;4992585;28;20045;-49
2020/12/28 01:01:33;;;;;;;15.35;9.82;;;5.30;94.60;;;;;;4983950;28;20035;-49
2020/12/28 01:04:00;;;;;;;13.25;10.20;;;5.40;94.70;;;;;;4991225;28;20065;-49
2020/12/28 01:06:26;;;;;;;13.75;10.68;;;5.30;94.80;;;;;;4986039;28;20046;-48
2020/12/28 01:08:52;;;;;;;13.98;9.85;;;5.30;94.70;;;;;;4989160;28;20131;-52
2020/12/28 01:11:22;;;;;;;13.18;9.93;;;5.40;94.90;;;;;;4979714;28;20089;-50
2020/12/28 01:13:49;;;;;;;12.98;9.98;;;5.30;94.90;;;;;;4988898;28;20058;-49
2020/12/28 01:16:15;;;;;;;14.70;10.82;;;5.30;94.80;;;;;;4989313;28;20050;-49
2020/12/28 01:18:42;;;;;;;15.57;10.55;;;5.30;94.80;;;;;;4975412;28;20067;-49
2020/12/28 01:21:09;;;;;;;15.13;10.63;;;5.40;94.80;;;;;;4987974;28;20046;-49
2020/12/28 01:23:35;;;;;;;13.63;10.00;;;5.40;94.70;;;;;;4980914;28;20035;-49
2020/12/28 01:26:01;;;;;;;13.18;10.02;;;5.40;94.70;;;;;;5008935;28;20045;-49
2020/12/28 01:28:27;;;;;;;13.88;10.32;;;5.40;94.70;;;;;;4964085;28;20470;-51
2020/12/28 01:30:53;;;;;;;13.55;9.95;;;5.40;94.50;;;;;;4990426;28;20046;-50
2020/12/28 01:33:18;;;;;;;14.60;10.95;;;5.40;94.50;;;;;;4995114;28;20065;-52
2020/12/28 01:35:44;;;;;;;13.38;10.23;;;5.40;94.60;;;;;;4996584;28;20094;-50
2020/12/28 01:38:10;;;;;;;12.90;10.15;;;5.40;94.70;;;;;;4989626;28;20043;-49
2020/12/28 01:40:37;;;;;;;16.13;10.75;;;5.40;94.70;;;;;;4960198;28;20052;-48
2020/12/28 01:43:03;;;;;;;15.57;10.68;;;5.40;94.60;;;;;;4993161;28;20042;-49
2020/12/28 01:45:28;;;;;;;14.45;10.77;;;5.40;94.40;;;;;;4980473;28;20042;-49
2020/12/28 01:47:54;;;;;;;16.02;10.25;;;5.40;94.30;;;;;;4990847;28;20046;-50
2020/12/28 01:50:20;;;;;;;15.23;11.70;;;5.40;94.40;;;;;;4984524;28;20101;-50
2020/12/28 01:52:47;;;;;;;18.10;11.10;;;5.40;94.40;;;;;;4988276;28;20043;-49
2020/12/28 01:55:13;;;;;;;16.73;11.38;;;5.40;94.40;;;;;;4988217;28;20057;-49
2020/12/28 01:57:39;;;;;;;15.50;11.38;;;5.40;94.40;;;;;;4988847;28;20043;-49
2020/12/28 02:00:05;;;;;;;14.45;10.75;;;5.40;94.50;;;;;;4987642;28;20046;-49
2020/12/28 02:02:33;;;;;;;14.20;10.77;;;5.40;94.30;;;;;;4987687;28;20120;-49
2020/12/28 02:04:59;;;;;;;14.45;11.02;;;5.40;94.40;;;;;;5007061;28;20050;-49
2020/12/28 02:07:27;;;;;;;14.20;11.30;;;5.40;94.40;;;;;;4984310;28;20129;-49
2020/12/28 02:09:54;;;;;;;14.80;10.93;;;5.40;94.40;;;;;;4991266;28;20065;-49
2020/12/28 02:12:22;;;;;;;15.98;10.93;;;5.40;94.30;;;;;;4997094;28;20065;-50
2020/12/28 02:14:48;;;;;;;15.00;11.90;;;5.40;94.20;;;;;;4972275;28;20046;-48
2020/12/28 02:17:14;;;;;;;15.73;11.60;;;5.30;94.30;;;;;;4991459;28;20053;-50
2020/12/28 02:19:39;;;;;;;15.88;11.25;;;5.30;94.40;;;;;;4992143;28;20018;-48
2020/12/28 02:22:07;;;;;;;14.98;12.27;;;5.30;94.50;;;;;;4995888;28;20050;-55
2020/12/28 02:24:32;;;;;;;16.58;11.48;;;5.30;94.50;;;;;;5011312;28;20076;-51
2020/12/28 02:26:58;;;;;;;15.60;12.23;;;5.30;94.60;;;;;;4995463;28;20415;-48
2020/12/28 02:29:23;;;;;;;14.63;11.05;;;5.30;94.60;;;;;;4989048;28;20047;-49
2020/12/28 02:31:49;;;;;;;17.35;11.52;;;5.30;94.50;;;;;;4994723;28;20038;-48
2020/12/28 02:34:18;;;;;;;14.45;10.82;;;5.30;94.50;;;;;;4996387;28;20061;-49
2020/12/28 02:36:44;;;;;;;15.65;11.93;;;5.20;94.60;;;;;;4980166;28;20038;-49
2020/12/28 02:39:12;;;;;;;14.00;10.52;;;5.20;94.60;;;;;;4997832;28;20050;-49
2020/12/28 02:41:39;;;;;;;14.55;10.75;;;5.10;94.50;;;;;;4989490;28;20049;-50
2020/12/28 02:44:04;;;;;;;15.95;11.43;;;5.10;94.60;;;;;;4993006;28;20129;-48
2020/12/28 02:46:32;;;;;;;15.60;11.35;;;5.10;94.70;;;;;;4994993;28;20065;-50
2020/12/28 02:48:58;;;;;;;16.67;11.38;;;5.10;94.70;;;;;;4994305;28;20069;-48
2020/12/28 02:51:23;;;;;;;15.00;11.70;;;5.10;94.50;;;;;;4993063;28;20077;-52
2020/12/28 02:53:50;;;;;;;15.60;11.98;;;5.10;94.50;;;;;;4992877;28;20054;-49
2020/12/28 02:56:15;;;;;;;16.45;12.00;;;5.10;94.50;;;;;;4977826;28;20054;-50
2020/12/28 02:58:41;;;;;;;16.85;12.15;;;5.10;94.50;;;;;;4989568;28;20042;-49
2020/12/28 03:01:07;;;;;;;17.00;12.00;;;5.10;94.50;;;;;;4984962;28;20035;-49
2020/12/28 03:03:33;;;;;;;16.15;12.02;;;5.10;94.50;;;;;;4978489;28;20454;-49
2020/12/28 03:05:58;;;;;;;17.17;12.07;;;5.00;94.30;;;;;;4995261;28;20046;-49
2020/12/28 03:08:24;;;;;;;18.92;12.82;;;5.00;94.40;;;;;;4994316;28;20045;-49
2020/12/28 03:10:50;;;;;;;17.40;12.18;;;5.00;94.50;;;;;;4989434;28;20089;-49
2020/12/28 03:13:16;;;;;;;18.10;12.05;;;5.00;94.40;;;;;;4993330;28;20050;-49
2020/12/28 03:15:42;;;;;;;15.90;12.32;;;5.00;94.50;;;;;;4988055;28;20514;-49
2020/12/28 03:18:09;;;;;;;16.77;12.30;;;5.00;94.50;;;;;;4969793;28;20051;-49
2020/12/28 03:20:35;;;;;;;17.55;12.77;;;5.10;94.50;;;;;;4981292;28;20138;-49
2020/12/28 03:23:01;;;;;;;17.15;12.90;;;5.00;94.30;;;;;;4987036;28;20046;-51
2020/12/28 03:25:27;;;;;;;15.70;11.90;;;5.00;94.40;;;;;;4986959;28;20050;-50
2020/12/28 03:27:54;;;;;;;17.50;12.13;;;5.00;94.50;;;;;;4993034;28;20066;-48
2020/12/28 03:30:21;;;;;;;20.42;12.38;;;5.00;94.40;;;;;;4962274;28;20039;-48
2020/12/28 03:32:47;;;;;;;19.13;11.75;;;5.00;94.50;;;;;;5007181;28;20527;-49
2020/12/28 03:35:13;;;;;;;17.20;11.63;;;4.90;94.40;;;;;;4991724;28;20042;-49
2020/12/28 03:37:38;;;;;;;15.45;11.82;;;4.90;94.50;;;;;;4991810;28;20049;-51
2020/12/28 03:40:04;;;;;;;17.90;12.40;;;4.90;94.50;;;;;;4989034;28;20046;-48
2020/12/28 03:42:30;;;;;;;16.98;12.85;;;4.90;94.70;;;;;;4990588;28;20035;-48
2020/12/28 03:44:55;;;;;;;18.08;12.45;;;4.80;94.40;;;;;;4989499;28;20047;-48
2020/12/28 03:47:21;;;;;;;19.55;13.45;;;4.80;94.40;;;;;;4991440;28;20049;-48
2020/12/28 03:49:46;;;;;;;21.17;13.05;;;4.80;94.50;;;;;;4993655;28;20142;-51
2020/12/28 03:52:13;;;;;;;18.92;13.15;;;4.70;94.50;;;;;;4995573;28;20434;-48
2020/12/28 03:54:39;;;;;;;16.88;11.98;;;4.70;94.60;;;;;;4995466;28;20048;-51
2020/12/28 03:57:04;;;;;;;18.63;12.52;;;4.70;94.70;;;;;;4998321;28;20046;-48
2020/12/28 03:59:30;;;;;;;21.95;13.75;;;4.70;94.70;;;;;;4994919;28;20046;-49
2020/12/28 04:01:56;;;;;;;20.77;14.02;;;4.80;94.80;;;;;;4988238;28;20054;-49
2020/12/28 04:04:22;;;;;;;20.20;13.95;;;4.80;94.80;;;;;;4997454;28;20039;-49
2020/12/28 04:06:47;;;;;;;17.85;12.65;;;4.80;94.80;;;;;;5008579;28;20089;-48
2020/12/28 04:09:17;;;;;;;18.63;12.90;;;4.80;94.80;;;;;;5000375;28;20073;-49
2020/12/28 04:11:42;;;;;;;20.92;13.07;;;4.90;94.90;;;;;;4996983;28;20157;-48
2020/12/28 04:14:10;;;;;;;18.55;12.55;;;4.80;94.80;;;;;;4998566;28;20054;-51
2020/12/28 04:16:35;;;;;;;19.45;13.48;;;4.90;94.70;;;;;;4998612;28;20150;-49
2020/12/28 04:19:01;;;;;;;20.83;14.02;;;4.90;94.80;;;;;;4993927;28;20065;-48
2020/12/28 04:21:27;;;;;;;19.67;13.15;;;4.90;94.80;;;;;;4990609;28;20101;-48
2020/12/28 04:23:53;;;;;;;18.20;13.27;;;4.90;94.80;;;;;;4991295;28;20050;-50
2020/12/28 04:26:19;;;;;;;20.70;13.50;;;4.90;94.80;;;;;;5007326;28;20034;-48
2020/12/28 04:28:46;;;;;;;21.38;13.80;;;4.90;94.90;;;;;;4990517;28;20092;-51
2020/12/28 04:31:11;;;;;;;19.75;14.13;;;4.90;94.80;;;;;;4989601;28;20051;-51
2020/12/28 04:33:38;;;;;;;21.30;14.75;;;4.90;94.90;;;;;;4991517;28;20118;-48
2020/12/28 04:36:04;;;;;;;20.00;14.07;;;5.00;94.80;;;;;;4988193;28;20038;-48
2020/12/28 04:38:30;;;;;;;22.65;14.55;;;4.90;94.80;;;;;;4994716;28;20693;-48
2020/12/28 04:40:56;;;;;;;22.85;14.85;;;5.00;94.70;;;;;;4995264;28;20046;-52
2020/12/28 04:43:26;;;;;;;22.27;14.90;;;5.00;94.80;;;;;;4988491;28;20039;-51
2020/12/28 04:45:59;;;;;;;21.83;14.68;;;5.00;94.80;;;;;;4990728;28;20050;-48
2020/12/28 04:48:25;;;;;;;20.65;13.77;;;5.00;94.80;;;;;;4988529;28;20042;-49
2020/12/28 04:50:52;;;;;;;21.58;14.80;;;5.00;94.80;;;;;;4992382;28;20422;-50
2020/12/28 04:53:17;;;;;;;22.67;14.50;;;5.00;95.00;;;;;;4987485;28;20066;-48
2020/12/28 04:55:43;;;;;;;25.30;14.77;;;5.00;94.80;;;;;;4997688;28;20051;-49
2020/12/28 04:58:09;;;;;;;22.73;14.95;;;5.10;94.80;;;;;;4994025;28;20089;-51
2020/12/28 05:00:34;;;;;;;22.08;15.05;;;5.10;94.80;;;;;;4991470;28;20487;-52
2020/12/28 05:03:00;;;;;;;19.10;14.75;;;5.10;94.70;;;;;;4990067;28;20174;-49
2020/12/28 05:05:26;;;;;;;24.20;15.13;;;5.10;94.70;;;;;;4989849;28;20038;-49
2020/12/28 05:07:52;;;;;;;24.02;15.68;;;5.10;94.80;;;;;;4990580;28;20054;-49
2020/12/28 05:10:25;;;;;;;21.63;15.18;;;5.10;94.80;;;;;;4991223;28;20042;-49
2020/12/28 05:12:51;;;;;;;22.60;15.50;;;5.10;94.80;;;;;;4977582;28;20589;-50
2020/12/28 05:15:17;;;;;;;24.92;15.27;;;5.10;94.80;;;;;;4991004;28;20035;-48
2020/12/28 05:17:51;;;;;;;22.75;15.40;;;5.10;94.80;;;;;;4988963;28;20046;-49
2020/12/28 05:20:22;;;;;;;21.77;15.20;;;5.10;94.80;;;;;;4986059;28;20056;-49
2020/12/28 05:22:51;;;;;;;23.42;15.48;;;5.10;94.80;;;;;;4995024;28;20438;-48
2020/12/28 05:25:17;;;;;;;23.67;15.85;;;5.20;94.70;;;;;;5012839;28;20442;-49
2020/12/28 05:27:47;;;;;;;21.98;15.95;;;5.10;94.70;;;;;;4995930;28;20125;-49
2020/12/28 05:30:13;;;;;;;23.42;15.40;;;5.20;94.80;;;;;;4992009;28;20056;-50
2020/12/28 05:32:44;;;;;;;28.60;15.27;;;5.20;94.70;;;;;;4979815;28;20488;-49
2020/12/28 05:35:13;;;;;;;22.52;15.23;;;5.10;94.70;;;;;;4990840;28;20454;-49
2020/12/28 05:37:39;;;;;;;25.40;15.57;;;5.10;94.70;;;;;;4994015;28;20065;-49
2020/12/28 05:40:09;;;;;;;25.27;15.02;;;5.10;94.80;;;;;;4995933;28;20046;-48
2020/12/28 05:42:51;;;;;;;23.80;15.63;;;5.10;94.70;;;;;;4994572;28;20502;-49
2020/12/28 05:45:17;;;;;;;23.85;16.52;;;5.10;94.70;;;;;;4994476;28;20051;-48
2020/12/28 05:47:56;;;;;;;21.70;14.82;;;5.10;94.80;;;;;;4994659;28;20046;-48
2020/12/28 05:50:31;;;;;;;23.50;14.68;;;5.10;94.80;;;;;;4994493;28;20042;-49
2020/12/28 05:52:59;;;;;;;23.17;15.75;;;5.10;94.70;;;;;;4991055;28;20108;-49
2020/12/28 05:55:26;;;;;;;22.33;15.38;;;5.10;94.70;;;;;;4994761;28;20378;-48
2020/12/28 05:57:54;;;;;;;26.17;16.42;;;5.10;94.70;;;;;;4988516;28;20038;-49
2020/12/28 06:00:21;;;;;;;21.20;15.38;;;5.20;94.80;;;;;;4991651;28;20073;-50
2020/12/28 06:02:48;;;;;;;22.05;15.93;;;5.20;94.70;;;;;;4992987;28;20431;-48
2020/12/28 06:05:21;;;;;;;24.38;15.60;;;5.10;94.60;;;;;;4985443;28;20101;-51
2020/12/28 06:07:49;;;;;;;22.83;14.85;;;5.10;94.60;;;;;;4992325;28;20142;-51
2020/12/28 06:10:19;;;;;;;23.92;15.30;;;5.10;94.50;;;;;;4987454;28;20499;-48
2020/12/28 06:12:56;;;;;;;21.90;14.73;;;5.20;94.60;;;;;;5008416;28;20047;-48
2020/12/28 06:15:21;;;;;;;23.13;16.00;;;5.10;94.40;;;;;;4992109;28;20046;-50
2020/12/28 06:17:47;;;;;;;20.75;14.95;;;5.20;94.40;;;;;;4990129;28;20514;-49
2020/12/28 06:20:14;;;;;;;21.73;15.85;;;5.20;94.20;;;;;;4994217;28;20042;-50
2020/12/28 06:22:43;;;;;;;24.13;15.95;;;5.10;94.20;;;;;;4988020;28;20507;-49
2020/12/28 06:25:12;;;;;;;21.60;14.55;;;5.10;94.40;;;;;;4981581;28;20142;-51
2020/12/28 06:27:42;;;;;;;22.30;14.98;;;5.10;94.40;;;;;;4982227;28;20041;-48
2020/12/28 06:30:21;;;;;;;22.15;14.07;;;5.20;94.20;;;;;;4991294;28;20038;-48
2020/12/28 06:33:00;;;;;;;19.95;13.80;;;5.10;94.20;;;;;;4986014;28;20054;-48
2020/12/28 06:35:28;;;;;;;20.83;14.18;;;5.10;94.10;;;;;;4991629;28;20038;-48
2020/12/28 06:37:54;;;;;;;22.38;14.07;;;5.10;94.20;;;;;;4992110;28;20092;-48
2020/12/28 06:40:34;;;;;;;21.13;14.00;;;5.10;94.20;;;;;;4990812;28;20046;-49
2020/12/28 06:43:19;;;;;;;19.63;13.95;;;5.10;94.20;;;;;;4985766;28;20057;-49
2020/12/28 06:45:52;;;;;;;20.17;13.40;;;5.10;94.20;;;;;;4983549;28;20511;-49
2020/12/28 06:48:25;;;;;;;18.23;13.25;;;5.10;94.20;;;;;;4976299;28;20054;-50
2020/12/28 06:50:55;;;;;;;19.23;13.48;;;5.00;94.10;;;;;;4990241;28;20077;-54
2020/12/28 06:53:25;;;;;;;18.30;12.32;;;5.00;94.30;;;;;;4990270;28;20487;-49
2020/12/28 06:55:51;;;;;;;18.42;12.52;;;4.90;94.10;;;;;;4984960;28;20042;-50
2020/12/28 06:58:17;;;;;;;21.10;12.93;;;4.90;94.00;;;;;;4983479;28;20046;-49
2020/12/28 07:00:43;;;;;;;18.83;12.73;;;4.80;93.90;;;;;;4989724;28;20125;-47
2020/12/28 07:03:16;;;;;;;20.33;13.57;;;4.70;93.90;;;;;;4983949;28;20051;-53
2020/12/28 07:05:42;;;;;;;21.42;13.25;;;4.60;94.00;;;;;;4980045;28;20451;-52
2020/12/28 07:08:08;;;;;;;21.83;13.20;;;4.60;94.30;;;;;;4992391;28;20459;-50
2020/12/28 07:10:37;;;;;;;19.92;12.82;;;4.60;94.20;;;;;;4986489;28;20042;-49
2020/12/28 07:13:07;;;;;;;21.42;12.95;;;4.50;94.00;;;;;;4991308;28;20054;-51
2020/12/28 07:15:33;;;;;;;18.23;13.05;;;4.40;94.10;;;;;;4991243;28;20081;-48
2020/12/28 07:18:06;;;;;;;20.73;13.13;;;4.40;94.10;;;;;;4986522;28;20463;-48
2020/12/28 07:20:33;;;;;;;21.08;13.20;;;4.30;94.00;;;;;;4985369;28;20046;-48
2020/12/28 07:23:00;;;;;;;19.65;13.10;;;4.30;94.10;;;;;;4992657;28;20035;-51
2020/12/28 07:25:28;;;;;;;22.35;12.57;;;4.30;94.10;;;;;;4988808;28;20713;-48
2020/12/28 07:27:56;;;;;;;22.25;13.95;;;4.30;93.90;;;;;;4983326;28;20045;-49
2020/12/28 07:30:22;;;;;;;18.98;13.23;;;4.20;93.90;;;;;;4993726;28;20513;-50
2020/12/28 07:32:56;;;;;;;23.23;14.27;;;4.20;94.10;;;;;;4991136;28;20050;-50
2020/12/28 07:35:21;;;;;;;21.27;13.55;;;4.10;93.90;;;;;;4993878;28;20038;-48
2020/12/28 07:37:48;;;;;;;21.00;12.55;;;4.10;93.90;;;;;;4996297;28;20539;-48
2020/12/28 07:40:15;;;;;;;22.35;13.90;;;4.10;93.80;;;;;;4992227;28;20106;-48
2020/12/28 07:42:41;;;;;;;20.42;13.93;;;4.00;93.80;;;;;;4987097;28;20519;-49
2020/12/28 07:45:09;;;;;;;21.33;13.38;;;4.00;94.00;;;;;;4987066;28;20057;-49
2020/12/28 07:47:46;;;;;;;22.45;14.13;;;3.90;94.10;;;;;;4984738;28;20041;-53
2020/12/28 07:50:14;;;;;;;21.30;13.48;;;4.00;94.20;;;;;;4992854;28;20062;-52
2020/12/28 07:52:58;;;;;;;20.65;13.23;;;4.00;94.20;;;;;;4993212;28;20125;-53
2020/12/28 07:55:34;;;;;;;21.73;13.90;;;3.90;94.30;;;;;;4981276;28;20061;-54
2020/12/28 07:58:38;;;;;;;20.15;13.55;;;3.90;94.30;;;;;;4983595;28;20042;-53
2020/12/28 08:01:15;;;;;;;21.42;13.23;;;3.90;94.20;;;;;;4988393;28;20038;-51
2020/12/28 08:03:46;;;;;;;22.52;13.60;;;3.90;94.20;;;;;;4983999;28;20054;-50
2020/12/28 08:06:14;;;;;;;21.02;13.13;;;3.90;94.30;;;;;;4992229;28;20062;-53
2020/12/28 08:08:40;;;;;;;20.02;12.60;;;3.80;94.40;;;;;;4990044;28;20396;-50
2020/12/28 08:11:06;;;;;;;22.13;13.35;;;3.80;94.40;;;;;;4992978;28;20158;-52
2020/12/28 08:13:34;;;;;;;19.20;13.43;;;3.80;94.30;;;;;;4987557;28;20050;-53
2020/12/28 08:16:10;;;;;;;19.95;13.55;;;3.80;94.40;;;;;;4987596;28;20557;-53
2020/12/28 08:18:53;;;;;;;21.25;12.93;;;3.80;94.20;;;;;;4992676;28;20038;-50
2020/12/28 08:21:19;;;;;;;18.55;12.30;;;3.80;94.20;;;;;;4991403;28;20030;-53
2020/12/28 08:23:55;;;;;;;20.52;13.07;;;3.80;94.20;;;;;;4993550;28;20129;-52
2020/12/28 08:26:27;;;;;;;21.90;12.82;;;3.80;94.30;;;;;;4984728;28;20181;-53
2020/12/28 08:28:59;;;;;;;20.25;12.52;;;3.80;93.90;;;;;;4988615;28;20410;-54
2020/12/28 08:31:34;;;;;;;21.77;12.70;;;3.70;94.10;;;;;;4988447;28;20043;-52
2020/12/28 08:34:10;;;;;;;21.83;13.13;;;3.70;94.00;;;;;;4992919;28;20112;-54
2020/12/28 08:36:37;;;;;;;18.67;12.25;;;3.70;94.00;;;;;;4988560;28;20556;-52
2020/12/28 08:39:13;;;;;;;16.85;12.25;;;3.70;94.00;;;;;;4992731;28;20048;-51
2020/12/28 08:41:49;;;;;;;18.80;12.45;;;3.70;93.90;;;;;;4989547;28;20050;-50
2020/12/28 08:44:24;;;;;;;18.30;11.98;;;3.60;93.90;;;;;;4993626;28;20042;-53
2020/12/28 08:46:49;;;;;;;19.92;12.60;;;3.60;93.80;;;;;;4989713;28;20046;-50
2020/12/28 08:49:24;;;;;;;23.45;12.35;;;3.60;93.80;;;;;;4989496;28;20045;-53
2020/12/28 08:51:49;;;;;;;21.80;12.82;;;3.60;93.80;;;;;;4992548;28;20442;-50
2020/12/28 08:54:24;;;;;;;22.20;13.40;;;3.50;93.80;;;;;;4990777;28;20044;-53
2020/12/28 08:56:49;;;;;;;20.92;12.95;;;3.50;93.90;;;;;;4990990;28;20133;-53
2020/12/28 08:59:15;;;;;;;20.60;12.65;;;3.50;93.90;;;;;;4991012;28;20137;-53
2020/12/28 09:01:43;;;;;;;23.38;13.52;;;3.60;93.90;;;;;;4991362;28;20423;-53
2020/12/28 09:04:09;;;;;;;25.20;13.80;;;3.60;94.00;;;;;;4988571;28;20035;-52
2020/12/28 09:06:34;;;;;;;24.17;12.95;;;3.40;94.10;;;;;;4988697;28;20065;-52
2020/12/28 09:09:00;;;;;;;26.27;13.02;;;3.60;94.10;;;;;;4989329;28;20058;-53
2020/12/28 09:11:26;;;;;;;22.25;13.07;;;3.60;94.20;;;;;;4990714;28;20087;-53
2020/12/28 09:13:52;;;;;;;23.75;12.98;;;3.70;94.20;;;;;;4989613;28;20042;-53
2020/12/28 09:16:17;;;;;;;21.13;13.18;;;3.70;94.10;;;;;;4992526;28;20550;-50
2020/12/28 09:18:43;;;;;;;23.33;13.25;;;3.70;94.20;;;;;;4990043;28;20077;-52
2020/12/28 09:21:09;;;;;;;22.13;13.10;;;3.80;94.20;;;;;;4992173;28;20045;-53
2020/12/28 09:23:34;;;;;;;21.17;13.18;;;3.80;94.20;;;;;;4989625;28;20723;-54
2020/12/28 09:26:00;;;;;;;22.20;13.07;;;3.90;94.40;;;;;;4990545;28;20065;-53
2020/12/28 09:28:25;;;;;;;21.25;13.43;;;3.90;94.30;;;;;;4991256;28;20106;-53
2020/12/28 09:30:51;;;;;;;21.60;12.90;;;4.00;94.10;;;;;;4991791;28;20133;-51
2020/12/28 09:33:17;;;;;;;22.95;12.80;;;4.00;94.50;;;;;;4989691;28;20100;-51
2020/12/28 09:35:42;;;;;;;22.95;13.13;;;4.00;94.20;;;;;;4991871;28;20116;-53
2020/12/28 09:38:08;;;;;;;19.35;12.43;;;4.10;94.30;;;;;;4990422;28;20042;-51
2020/12/28 09:40:33;;;;;;;23.63;13.20;;;4.10;94.20;;;;;;4991319;28;20072;-53
2020/12/28 09:42:59;;;;;;;20.15;11.60;;;4.20;94.20;;;;;;4990147;28;20471;-49
2020/12/28 09:45:37;;;;;;;18.75;11.85;;;4.20;94.10;;;;;;4992154;28;20494;-53
2020/12/28 09:48:06;;;;;;;18.60;11.63;;;4.20;94.10;;;;;;4991501;28;20487;-53
2020/12/28 09:50:32;;;;;;;19.90;12.13;;;4.40;93.90;;;;;;4989776;28;20026;-51
2020/12/28 09:52:58;;;;;;;17.67;10.98;;;4.40;93.80;;;;;;4991676;28;20057;-53
2020/12/28 09:55:23;;;;;;;17.80;10.80;;;4.40;93.70;;;;;;4992365;28;20047;-49
2020/12/28 09:57:49;;;;;;;19.70;10.85;;;4.40;93.60;;;;;;4985414;28;20047;-53
2020/12/28 10:00:15;;;;;;;19.48;10.73;;;4.40;93.60;;;;;;4989815;28;20038;-52
2020/12/28 10:02:42;;;;;;;19.13;11.15;;;4.50;93.50;;;;;;4990619;28;20046;-50
2020/12/28 10:05:09;;;;;;;20.52;11.55;;;4.40;93.50;;;;;;4991014;28;20070;-50
2020/12/28 10:07:37;;;;;;;20.67;11.68;;;4.50;93.70;;;;;;4992008;28;20388;-52
2020/12/28 10:10:05;;;;;;;18.65;10.68;;;4.50;93.60;;;;;;4989112;28;20046;-53
2020/12/28 10:12:30;;;;;;;19.70;10.77;;;4.50;93.50;;;;;;4990669;28;20038;-51
2020/12/28 10:15:05;;;;;;;18.70;12.05;;;4.50;93.60;;;;;;5112294;27;20369;-50
2020/12/28 10:17:31;;;;;;;17.17;9.82;;;4.50;93.50;;;;;;5107960;28;20093;-51
2020/12/28 10:19:57;;;;;;;19.30;10.57;;;4.60;93.50;;;;;;5108474;28;20047;-54
2020/12/28 10:22:22;;;;;;;21.10;9.90;;;4.60;93.30;;;;;;5108029;28;20035;-49
2020/12/28 10:24:48;;;;;;;15.50;10.40;;;4.60;93.10;;;;;;5109469;28;20044;-50
2020/12/28 10:27:13;;;;;;;18.83;10.00;;;4.60;93.20;;;;;;5109016;28;20039;-52
2020/12/28 10:29:41;;;;;;;15.77;9.95;;;4.70;93.30;;;;;;5108144;28;20043;-53
2020/12/28 10:32:07;;;;;;;19.95;9.80;;;4.70;92.90;;;;;;5091102;28;20130;-49
2020/12/28 10:34:33;;;;;;;15.40;9.10;;;4.70;92.90;;;;;;5108632;28;20551;-48
2020/12/28 10:36:59;;;;;;;15.98;8.95;;;4.80;92.80;;;;;;5108794;28;20040;-51
2020/12/28 10:39:24;;;;;;;14.35;8.48;;;4.70;93.10;;;;;;5106596;28;20407;-52
2020/12/28 10:41:50;;;;;;;17.17;8.77;;;4.80;93.00;;;;;;5108087;28;20095;-53
2020/12/28 10:44:16;;;;;;;16.80;9.07;;;4.80;92.80;;;;;;5107414;28;20040;-50
2020/12/28 10:46:42;;;;;;;14.00;8.75;;;4.80;92.80;;;;;;5106844;28;20051;-49
2020/12/28 10:49:07;;;;;;;15.10;8.13;;;4.90;92.80;;;;;;5106491;28;20044;-49
2020/12/28 10:51:36;;;;;;;22.85;9.35;;;4.90;92.60;;;;;;5106888;28;20032;-50
2020/12/28 10:54:03;;;;;;;17.38;8.30;;;4.90;92.80;;;;;;5107063;28;20035;-49
2020/12/28 10:56:30;;;;;;;16.42;8.93;;;5.00;92.90;;;;;;5107833;28;20056;-49
2020/12/28 10:58:59;;;;;;;15.63;8.07;;;5.00;92.80;;;;;;5107908;28;20077;-50
2020/12/28 11:01:27;;;;;;;19.27;8.38;;;5.10;92.60;;;;;;5107638;28;20042;-50
2020/12/28 11:03:53;;;;;;;13.73;7.63;;;5.10;92.70;;;;;;5110488;28;20040;-49
2020/12/28 11:06:20;;;;;;;15.27;7.80;;;5.20;92.50;;;;;;5112506;28;20562;-49
2020/12/28 11:08:46;;;;;;;18.80;7.80;;;5.30;92.50;;;;;;5109588;28;20036;-51
2020/12/28 11:11:12;;;;;;;14.63;7.93;;;5.30;92.40;;;;;;5108449;28;20036;-51
2020/12/28 11:13:38;;;;;;;16.80;7.00;;;5.30;92.50;;;;;;5106589;28;20178;-52
2020/12/28 11:16:03;;;;;;;13.02;7.45;;;5.30;92.40;;;;;;5110051;28;20036;-53
2020/12/28 11:18:30;;;;;;;13.25;7.43;;;5.30;92.20;;;;;;5107702;27;20405;-52
2020/12/28 11:20:55;;;;;;;11.63;7.15;;;5.40;92.10;;;;;;5109970;28;20085;-51
2020/12/28 11:23:21;;;;;;;15.00;7.72;;;5.40;92.00;;;;;;5107476;28;20097;-52
2020/12/28 11:25:48;;;;;;;15.48;8.23;;;5.40;92.20;;;;;;5097538;28;20071;-51
2020/12/28 11:28:14;;;;;;;16.25;7.97;;;5.50;91.90;;;;;;5095703;28;20071;-50
2020/12/28 11:30:40;;;;;;;16.45;8.32;;;5.50;92.00;;;;;;5087747;28;20063;-50
2020/12/28 11:33:06;;;;;;;15.40;7.97;;;5.60;92.20;;;;;;5093983;28;20523;-52
2020/12/28 11:35:31;;;;;;;15.38;7.95;;;5.60;92.10;;;;;;5099019;28;20138;-49
2020/12/28 11:37:57;;;;;;;13.43;7.93;;;5.70;92.10;;;;;;5097141;28;20119;-51
2020/12/28 11:40:23;;;;;;;16.73;8.45;;;5.70;92.00;;;;;;5099822;28;20044;-48
2020/12/28 11:42:49;;;;;;;19.63;8.05;;;5.80;92.00;;;;;;5094888;28;20085;-51
2020/12/28 11:45:15;;;;;;;11.57;8.18;;;5.80;91.50;;;;;;5094822;28;20504;-49
2020/12/28 11:47:40;;;;;;;17.25;8.23;;;5.90;91.20;;;;;;5092797;28;20051;-49
2020/12/28 11:50:07;;;;;;;13.93;8.18;;;5.80;91.40;;;;;;5089549;28;20032;-54
2020/12/28 11:52:33;;;;;;;14.52;7.32;;;5.80;91.70;;;;;;5094949;28;20069;-49
2020/12/28 11:54:59;;;;;;;12.35;7.32;;;5.80;91.90;;;;;;5094190;28;20108;-48
2020/12/28 11:57:25;;;;;;;10.80;6.85;;;5.80;91.70;;;;;;5096051;28;20112;-50
2020/12/28 11:59:51;;;;;;;13.90;7.68;;;5.80;91.70;;;;;;5092098;28;20032;-48
2020/12/28 12:02:21;;;;;;;15.55;7.28;;;5.80;91.70;;;;;;5097796;28;20044;-49
2020/12/28 12:04:51;;;;;;;13.18;6.15;;;5.80;90.90;;;;;;5096406;28;20044;-52
2020/12/28 12:07:18;;;;;;;11.80;6.88;;;5.90;91.00;;;;;;5096638;28;20039;-52
2020/12/28 12:09:44;;;;;;;12.75;6.50;;;5.80;91.50;;;;;;5094044;28;20067;-48
2020/12/28 12:12:11;;;;;;;13.40;6.53;;;5.80;91.10;;;;;;5095128;28;20067;-48
2020/12/28 12:14:36;;;;;;;11.60;6.78;;;5.80;90.90;;;;;;5094436;28;20044;-52
2020/12/28 12:17:02;;;;;;;10.02;6.38;;;5.80;90.90;;;;;;5098891;28;20047;-49
2020/12/28 12:19:28;;;;;;;12.18;6.22;;;5.80;90.70;;;;;;5091123;28;20621;-52
2020/12/28 12:21:54;;;;;;;11.50;6.75;;;5.80;90.80;;;;;;5099557;28;20561;-50
2020/12/28 12:24:20;;;;;;;13.98;6.65;;;5.70;90.80;;;;;;5094926;28;20085;-51
2020/12/28 12:26:45;;;;;;;14.48;6.25;;;5.80;90.90;;;;;;5094396;28;20043;-51
2020/12/28 12:29:11;;;;;;;14.13;6.47;;;5.70;91.10;;;;;;5088163;28;20047;-51
2020/12/28 12:31:37;;;;;;;17.33;7.60;;;5.80;90.90;;;;;;5093528;28;20050;-54
2020/12/28 12:34:02;;;;;;;11.57;6.30;;;5.80;90.90;;;;;;5100895;28;20444;-54
2020/12/28 12:36:28;;;;;;;13.77;6.97;;;5.90;91.00;;;;;;5090373;28;20068;-51
2020/12/28 12:38:53;;;;;;;11.13;6.85;;;5.90;90.80;;;;;;5095391;28;20052;-51
2020/12/28 12:41:20;;;;;;;11.68;6.75;;;5.90;91.00;;;;;;5092606;28;20089;-54